首页
METAR-TAF:

METAR-TAF

机场 :

靜岡機場

靜岡, 日本

纬度: 34-47-46N, 经度: 138-11-22E, 海拔: 132米

当前天气观测

该预报发布于8小时和11分钟前的12:00 UTC
风速2节,风向多变
温度 23°C
湿度 100%
气压 1015 hPa
能见度10公里或以上
少量云层高于1000英尺
散云层高于4000英尺
多云

METAR: RJNS 241200Z VRB02KT 9999 FEW010 SCT040 BKN/// 23/23 Q1015

时间: 05:11 (20:11 UTC)

预报

该预报发布于3小时和6分钟前的17:05 UTC
预报有效从24日的 18点(UTC)到 26日的 00点(UTC)
风速4节,风向西北
能见度10公里或以上
少量云层高于1000英尺
多云层高于3000英尺
成为
从 25日的 00点(UTC)到 25日的 02点(UTC)
风速6节,风向东北
短暂存在
从 25日的 02点(UTC)到 25日的 09点(UTC)
能見度: 4000
少量云层高于400英尺
多云层高于800英尺
阵雨, 轻雾
短暂存在
从 25日的 09点(UTC)到 25日的 15点(UTC)
少量云层高于400英尺
多云层高于800英尺

TAF: RJNS 241705Z 2418/2600 32004KT 9999 FEW010 BKN030 BECMG 2500/2502 05006KT TEMPO 2502/2509 4000 SHRA BR FEW004 BKN008 TEMPO 2509/2515 FEW004 BKN008

超过4000个机场的气象观测和天气预报(METAR&TAF报告)。

可查询的气象台以黄色和红色小点在地图上表示。

将鼠标移到小点上方,可查看气象台名称。

然后点击查看天气观测和预报。

如需切换地图:点击带黑十字的绿色按钮放大地图;点击带横线的绿色按钮缩小地图;或者点击绿色箭头查看邻近地区的地图。


METAR-TAF: